createdAt,value
2019-03-30T00:01:39.031Z,9.69
2019-03-30T00:04:14.287Z,9.69
2019-03-30T00:06:49.670Z,9.66
2019-03-30T00:09:25.273Z,9.62
2019-03-30T00:12:00.672Z,9.55
2019-03-30T00:14:36.287Z,9.50
2019-03-30T00:17:11.707Z,9.50
2019-03-30T00:19:47.287Z,9.50
2019-03-30T00:22:22.654Z,9.43
2019-03-30T00:24:58.283Z,9.40
2019-03-30T00:27:33.655Z,9.36
2019-03-30T00:30:09.271Z,9.32
2019-03-30T00:32:44.661Z,9.30
2019-03-30T00:35:20.282Z,9.31
2019-03-30T00:37:55.659Z,9.27
2019-03-30T00:40:31.284Z,9.25
2019-03-30T00:43:06.750Z,9.23
2019-03-30T00:45:42.296Z,9.20
2019-03-30T00:48:17.655Z,9.15
2019-03-30T00:50:53.290Z,9.07
2019-03-30T00:53:28.659Z,9.01
2019-03-30T00:56:05.295Z,8.95
2019-03-30T00:58:42.237Z,9.01
2019-03-30T01:01:18.471Z,9.00
2019-03-30T01:03:53.898Z,9.00
2019-03-30T01:06:27.762Z,8.97
2019-03-30T01:09:03.318Z,8.90
2019-03-30T01:11:39.281Z,8.90
2019-03-30T01:14:14.945Z,8.89
2019-03-30T01:16:48.659Z,8.93
2019-03-30T01:19:23.886Z,8.96
2019-03-30T01:21:57.600Z,8.99
2019-03-30T01:24:32.790Z,8.99
2019-03-30T01:27:08.279Z,8.95
2019-03-30T01:29:44.692Z,8.97
2019-03-30T01:32:20.295Z,9.00
2019-03-30T01:34:55.688Z,8.97
2019-03-30T01:37:31.262Z,8.91
2019-03-30T01:40:08.622Z,8.94
2019-03-30T01:42:43.870Z,8.81
2019-03-30T01:45:17.592Z,8.76
2019-03-30T01:47:52.687Z,8.72
2019-03-30T01:50:28.278Z,8.66
2019-03-30T01:53:03.712Z,8.62
2019-03-30T01:55:39.303Z,8.56
2019-03-30T01:58:14.697Z,8.51
2019-03-30T02:00:50.283Z,8.48
2019-03-30T02:03:25.708Z,8.44
2019-03-30T02:06:01.292Z,8.38
2019-03-30T02:08:36.683Z,8.34
2019-03-30T02:11:12.279Z,8.35
2019-03-30T02:13:47.668Z,8.32
2019-03-30T02:16:23.266Z,8.28
2019-03-30T02:18:58.705Z,8.27
2019-03-30T02:21:34.582Z,8.11
2019-03-30T02:24:09.932Z,8.11
2019-03-30T02:26:45.268Z,8.09
2019-03-30T02:29:20.685Z,8.09
2019-03-30T02:31:56.289Z,8.02
2019-03-30T02:34:31.673Z,7.92
2019-03-30T02:37:07.289Z,7.99
2019-03-30T02:39:42.684Z,8.09
2019-03-30T02:42:18.273Z,8.24
2019-03-30T02:44:53.662Z,8.34
2019-03-30T02:47:29.277Z,8.42
2019-03-30T02:50:04.648Z,8.41
2019-03-30T02:52:40.276Z,8.46
2019-03-30T02:55:15.665Z,8.52
2019-03-30T02:57:49.584Z,8.56
2019-03-30T03:00:24.871Z,8.52
2019-03-30T03:02:58.576Z,8.56
2019-03-30T03:05:33.699Z,8.55
2019-03-30T03:08:09.279Z,8.50
2019-03-30T03:10:44.713Z,8.55
2019-03-30T03:13:20.284Z,8.53
2019-03-30T03:15:55.714Z,8.63
2019-03-30T03:18:29.403Z,8.65
2019-03-30T03:21:08.135Z,8.71
2019-03-30T03:24:55.312Z,8.82
2019-03-30T03:27:30.749Z,8.78
2019-03-30T03:30:06.617Z,8.83
2019-03-30T03:33:10.565Z,8.93
2019-03-30T03:35:45.794Z,8.71
2019-03-30T03:38:21.277Z,8.71
2019-03-30T03:40:56.686Z,8.71
2019-03-30T03:43:32.208Z,8.63
2019-03-30T03:46:08.677Z,8.50
2019-03-30T03:48:44.287Z,8.50
2019-03-30T03:51:26.029Z,8.45
2019-03-30T03:53:58.338Z,8.40
2019-03-30T03:56:35.763Z,8.34
2019-03-30T03:59:13.267Z,8.29
2019-03-30T04:01:50.307Z,8.24
2019-03-30T04:04:28.427Z,8.15
2019-03-30T04:07:05.295Z,8.06
2019-03-30T04:12:02.689Z,8.04
2019-03-30T04:14:40.682Z,7.99
2019-03-30T04:17:16.274Z,7.97
2019-03-30T04:19:51.708Z,7.97
2019-03-30T04:22:27.291Z,7.95
2019-03-30T04:25:02.709Z,7.88
2019-03-30T04:29:38.304Z,7.79
2019-03-30T04:32:13.674Z,7.62
2019-03-30T04:34:49.137Z,7.56
2019-03-30T04:37:24.666Z,7.40
2019-03-30T04:40:00.468Z,7.40
2019-03-30T04:42:35.943Z,7.37
2019-03-30T04:45:11.399Z,7.36
2019-03-30T04:47:46.810Z,7.34
2019-03-30T04:50:20.591Z,7.36
2019-03-30T04:52:56.661Z,7.40
2019-03-30T04:55:32.242Z,7.36
2019-03-30T04:58:09.469Z,7.37
2019-03-30T05:00:45.254Z,7.32
2019-03-30T05:03:20.671Z,7.31
2019-03-30T05:05:56.242Z,7.33
2019-03-30T05:08:31.613Z,7.38
2019-03-30T05:11:07.275Z,7.47
2019-03-30T05:13:42.657Z,7.47
2019-03-30T05:16:18.259Z,7.48
2019-03-30T05:18:53.651Z,7.52
2019-03-30T05:21:29.281Z,7.60
2019-03-30T05:24:04.691Z,7.60
2019-03-30T05:26:40.271Z,7.63
2019-03-30T05:29:15.642Z,7.67
2019-03-30T05:31:51.264Z,7.75
2019-03-30T05:34:26.658Z,7.83
2019-03-30T05:37:02.251Z,7.87
2019-03-30T05:39:37.740Z,7.94
2019-03-30T05:42:13.268Z,8.10
2019-03-30T05:44:48.733Z,8.26
2019-03-30T05:47:24.327Z,8.42
2019-03-30T05:49:59.659Z,8.56
2019-03-30T05:52:35.794Z,8.60
2019-03-30T05:55:11.323Z,8.78
2019-03-30T05:57:46.655Z,8.89
2019-03-30T06:00:24.295Z,9.17
2019-03-30T06:02:59.763Z,9.27
2019-03-30T06:05:35.374Z,9.52
2019-03-30T06:08:10.885Z,9.76
2019-03-30T06:10:44.563Z,10.17
2019-03-30T06:13:19.891Z,10.17
2019-03-30T06:15:53.581Z,10.30
2019-03-30T06:18:28.707Z,10.46
2019-03-30T06:21:04.273Z,10.54
2019-03-30T06:23:39.663Z,10.64
2019-03-30T06:26:15.280Z,10.82
2019-03-30T06:28:50.666Z,11.00
2019-03-30T06:31:26.260Z,11.25
2019-03-30T06:34:01.638Z,11.25
2019-03-30T06:36:37.336Z,11.64
2019-03-30T06:39:12.642Z,11.89
2019-03-30T06:41:48.287Z,11.89
2019-03-30T06:44:23.654Z,12.20
2019-03-30T06:46:59.133Z,12.33
2019-03-30T06:49:35.566Z,12.60
2019-03-30T06:52:11.250Z,12.60
2019-03-30T06:54:46.632Z,12.96
2019-03-30T06:57:22.239Z,13.24
2019-03-30T06:59:57.640Z,13.53
2019-03-30T07:02:34.253Z,13.72
2019-03-30T07:05:10.912Z,13.89
2019-03-30T07:07:49.278Z,13.97
2019-03-30T07:10:24.737Z,14.19
2019-03-30T07:13:01.280Z,14.32
2019-03-30T07:15:38.298Z,14.51
2019-03-30T07:18:13.938Z,14.97
2019-03-30T07:20:49.280Z,15.48
2019-03-30T07:23:24.670Z,15.58
2019-03-30T07:26:00.137Z,15.77
2019-03-30T07:28:35.508Z,16.00
2019-03-30T07:31:10.895Z,16.00
2019-03-30T07:33:46.542Z,16.57
2019-03-30T07:36:21.908Z,16.57
2019-03-30T07:38:58.259Z,16.92
2019-03-30T07:41:34.265Z,17.11
2019-03-30T07:44:09.658Z,17.26
2019-03-30T07:46:45.263Z,17.38
2019-03-30T07:49:20.641Z,17.79
2019-03-30T07:51:56.258Z,18.24
2019-03-30T07:54:31.680Z,18.94
2019-03-30T07:57:16.613Z,19.34
2019-03-30T07:59:44.300Z,19.34
2019-03-30T08:02:19.676Z,19.36
2019-03-30T08:04:56.264Z,19.42
2019-03-30T08:08:33.297Z,19.96
2019-03-30T08:11:08.676Z,20.62
2019-03-30T08:13:43.891Z,22.66
2019-03-30T08:16:19.270Z,22.66
2019-03-30T08:18:54.674Z,23.38
2019-03-30T08:21:30.320Z,24.21
2019-03-30T08:24:05.749Z,25.11
2019-03-30T08:26:39.432Z,25.87
2019-03-30T08:29:14.671Z,26.16
2019-03-30T08:31:50.269Z,26.38
2019-03-30T08:35:41.935Z,27.29
2019-03-30T08:38:17.324Z,27.29
2019-03-30T08:40:52.696Z,27.64
2019-03-30T08:43:27.797Z,27.76
2019-03-30T08:46:03.271Z,27.69
2019-03-30T08:48:38.706Z,28.35
2019-03-30T08:51:14.241Z,28.10
2019-03-30T08:53:54.876Z,28.40
2019-03-30T08:56:28.153Z,28.36
2019-03-30T08:59:03.939Z,28.24
2019-03-30T09:01:39.289Z,28.42
2019-03-30T09:06:30.302Z,28.99
2019-03-30T09:09:07.946Z,29.05
2019-03-30T09:11:43.749Z,29.28
2019-03-30T09:14:17.575Z,29.96
2019-03-30T09:16:52.672Z,28.52
2019-03-30T09:19:28.259Z,28.52
2019-03-30T09:22:03.661Z,28.87
2019-03-30T09:24:39.332Z,28.38
2019-03-30T09:27:14.757Z,27.64
2019-03-30T09:29:48.588Z,28.09
2019-03-30T09:32:23.865Z,28.10
2019-03-30T09:34:57.591Z,27.64
2019-03-30T09:37:32.799Z,27.76
2019-03-30T09:40:07.016Z,27.95
2019-03-30T09:42:41.663Z,28.00
2019-03-30T09:45:20.316Z,28.78
2019-03-30T09:47:56.763Z,28.78
2019-03-30T09:50:32.342Z,28.42
2019-03-30T09:53:07.953Z,29.06
2019-03-30T09:55:43.612Z,29.24
2019-03-30T09:58:19.137Z,29.24
2019-03-30T10:00:54.724Z,28.31
2019-03-30T10:03:28.571Z,28.31
2019-03-30T10:06:04.087Z,28.43
2019-03-30T10:08:39.583Z,27.99
2019-03-30T10:11:15.282Z,27.99
2019-03-30T10:13:50.656Z,27.42
2019-03-30T10:16:26.259Z,27.42
2019-03-30T10:19:01.841Z,27.87
2019-03-30T10:21:38.476Z,28.14
2019-03-30T10:24:13.987Z,28.56
2019-03-30T10:26:49.434Z,28.85
2019-03-30T10:29:26.285Z,28.49
2019-03-30T10:32:02.393Z,28.99
2019-03-30T10:34:39.638Z,28.15
2019-03-30T10:38:36.738Z,28.47
2019-03-30T10:41:12.502Z,28.59
2019-03-30T10:43:47.897Z,28.71
2019-03-30T10:46:23.294Z,28.34
2019-03-30T10:48:58.698Z,27.95
2019-03-30T10:51:34.594Z,28.47
2019-03-30T10:54:09.942Z,28.74
2019-03-30T10:57:49.855Z,29.47
2019-03-30T11:00:44.327Z,29.47
2019-03-30T11:03:19.941Z,29.61
2019-03-30T11:05:55.277Z,29.92
2019-03-30T11:08:32.289Z,29.61
2019-03-30T11:11:08.694Z,29.64
2019-03-30T11:13:43.944Z,30.29
2019-03-30T11:16:19.330Z,30.14
2019-03-30T11:18:54.669Z,31.10
2019-03-30T11:21:30.514Z,31.10
2019-03-30T11:24:06.912Z,31.46
2019-03-30T11:26:42.361Z,31.57
2019-03-30T11:29:17.864Z,31.57
2019-03-30T11:33:55.335Z,31.83
2019-03-30T11:36:31.332Z,32.27
2019-03-30T11:39:07.315Z,33.19
2019-03-30T11:41:42.762Z,34.20
2019-03-30T11:44:39.330Z,34.28
2019-03-30T11:47:15.078Z,33.34
2019-03-30T11:49:50.554Z,33.99
2019-03-30T11:52:26.266Z,33.99
2019-03-30T11:55:01.719Z,34.63
2019-03-30T11:57:35.650Z,34.90
2019-03-30T12:00:11.421Z,35.13
2019-03-30T12:02:46.903Z,35.28
2019-03-30T12:05:22.333Z,36.24
2019-03-30T12:07:57.657Z,35.34
2019-03-30T12:10:31.403Z,35.30
2019-03-30T12:13:06.658Z,35.81
2019-03-30T12:16:20.791Z,36.11
2019-03-30T12:18:55.042Z,36.56
2019-03-30T12:21:30.947Z,36.10
2019-03-30T12:24:06.288Z,36.91
2019-03-30T12:26:42.281Z,37.07
2019-03-30T12:29:18.290Z,37.10
2019-03-30T12:31:54.287Z,37.01
2019-03-30T12:34:29.948Z,37.59
2019-03-30T12:37:05.606Z,37.62
2019-03-30T12:39:40.276Z,37.81
2019-03-30T12:42:15.724Z,36.82
2019-03-30T12:44:49.605Z,36.82
2019-03-30T12:47:24.941Z,37.12
2019-03-30T12:50:00.585Z,37.20
2019-03-30T12:52:34.399Z,36.69
2019-03-30T12:55:09.971Z,36.45
2019-03-30T12:59:26.708Z,36.67
2019-03-30T13:02:00.567Z,36.84
2019-03-30T13:04:36.538Z,37.41
2019-03-30T13:07:12.047Z,37.48
2019-03-30T13:10:53.647Z,38.01
2019-03-30T13:13:29.303Z,37.77
2019-03-30T13:16:04.673Z,37.99
2019-03-30T13:18:38.526Z,37.99
2019-03-30T13:22:23.381Z,37.89
2019-03-30T13:24:58.699Z,37.91
2019-03-30T13:27:32.372Z,37.72
2019-03-30T13:30:08.549Z,36.47
2019-03-30T13:32:43.953Z,36.47
2019-03-30T13:35:19.409Z,37.48
2019-03-30T13:37:54.669Z,37.48
2019-03-30T13:40:28.381Z,37.83
2019-03-30T13:43:03.675Z,36.99
2019-03-30T13:45:37.389Z,36.18
2019-03-30T13:48:12.709Z,37.41
2019-03-30T13:50:47.927Z,37.41
2019-03-30T13:53:26.105Z,36.36
2019-03-30T13:56:01.664Z,37.16
2019-03-30T13:58:36.634Z,37.16
2019-03-30T14:01:11.711Z,37.52
2019-03-30T14:03:46.864Z,37.20
2019-03-30T14:06:22.270Z,37.24
2019-03-30T14:08:57.634Z,37.83
2019-03-30T14:11:34.242Z,37.55
2019-03-30T14:14:09.735Z,36.96
2019-03-30T14:16:43.405Z,37.05
2019-03-30T14:19:18.636Z,36.62
2019-03-30T14:21:53.925Z,36.12
2019-03-30T14:24:29.270Z,36.09
2019-03-30T14:27:04.703Z,36.41
2019-03-30T14:29:39.791Z,36.07
2019-03-30T14:32:13.589Z,35.97
2019-03-30T14:34:48.676Z,35.43
2019-03-30T14:37:22.328Z,35.43
2019-03-30T14:39:57.609Z,34.85
2019-03-30T14:42:32.864Z,34.92
2019-03-30T14:45:09.276Z,34.92
2019-03-30T14:47:44.663Z,34.42
2019-03-30T14:50:20.280Z,34.06
2019-03-30T14:52:55.639Z,32.88
2019-03-30T14:55:30.942Z,32.88
2019-03-30T14:58:06.295Z,32.18
2019-03-30T15:00:41.978Z,32.55
2019-03-30T15:03:17.696Z,33.14
2019-03-30T15:05:53.269Z,33.14
2019-03-30T15:08:28.884Z,33.44
2019-03-30T15:11:04.446Z,32.88
2019-03-30T15:13:39.932Z,32.88
2019-03-30T15:16:15.280Z,32.04
2019-03-30T15:18:50.960Z,32.16
2019-03-30T15:21:26.306Z,31.50
2019-03-30T15:24:01.737Z,31.50
2019-03-30T15:26:37.306Z,29.99
2019-03-30T15:29:12.783Z,29.80
2019-03-30T15:31:46.414Z,29.99
2019-03-30T15:34:21.679Z,29.54
2019-03-30T15:36:57.272Z,29.77
2019-03-30T15:39:32.775Z,30.50
2019-03-30T15:42:08.277Z,28.80
2019-03-30T15:44:43.745Z,27.70
2019-03-30T15:47:18.879Z,26.47
2019-03-30T15:49:54.271Z,26.68
2019-03-30T15:52:29.674Z,26.42
2019-03-30T15:55:05.274Z,26.47
2019-03-30T15:57:41.657Z,26.24
2019-03-30T16:00:19.614Z,26.00
2019-03-30T16:02:54.886Z,26.19
2019-03-30T16:05:30.268Z,26.44
2019-03-30T16:08:05.693Z,26.34
2019-03-30T16:10:40.848Z,25.21
2019-03-30T16:13:15.467Z,25.21
2019-03-30T16:15:51.292Z,24.93
2019-03-30T16:18:26.709Z,24.57
2019-03-30T16:21:02.277Z,24.21
2019-03-30T16:23:37.697Z,23.62
2019-03-30T16:26:11.309Z,23.27
2019-03-30T16:28:46.311Z,22.40
2019-03-30T16:31:21.677Z,22.40
2019-03-30T16:33:57.266Z,21.90
2019-03-30T16:36:33.238Z,21.76
2019-03-30T16:39:10.269Z,21.54
2019-03-30T16:41:45.699Z,21.30
2019-03-30T16:44:21.234Z,21.10
2019-03-30T16:46:57.601Z,20.95
2019-03-30T16:49:33.132Z,20.81
2019-03-30T16:52:08.665Z,20.52
2019-03-30T16:54:44.235Z,20.52
2019-03-30T16:57:19.672Z,20.34
2019-03-30T16:59:53.356Z,20.34
2019-03-30T17:02:28.687Z,20.29
2019-03-30T17:05:04.267Z,20.21
2019-03-30T17:07:39.636Z,20.08
2019-03-30T17:10:15.322Z,20.03
2019-03-30T17:12:50.671Z,19.84
2019-03-30T17:15:24.570Z,19.84
2019-03-30T17:17:59.885Z,19.70
2019-03-30T17:20:35.279Z,19.63
2019-03-30T17:23:10.670Z,19.53
2019-03-30T17:25:46.268Z,19.48
2019-03-30T17:28:21.700Z,19.44
2019-03-30T17:30:55.542Z,19.36
2019-03-30T17:33:30.754Z,19.26
2019-03-30T17:36:06.262Z,19.19
2019-03-30T17:38:41.711Z,19.07
2019-03-30T17:41:16.550Z,18.94
2019-03-30T17:43:51.668Z,18.87
2019-03-30T17:46:27.267Z,18.72
2019-03-30T17:49:02.670Z,18.72
2019-03-30T17:51:38.652Z,18.65
2019-03-30T17:54:14.210Z,18.51
2019-03-30T17:56:49.757Z,18.26
2019-03-30T17:59:25.287Z,18.26
2019-03-30T18:02:00.950Z,18.15
2019-03-30T18:04:38.863Z,18.04
2019-03-30T18:07:13.706Z,17.80
2019-03-30T18:09:49.269Z,17.64
2019-03-30T18:12:24.688Z,17.64
2019-03-30T18:15:00.413Z,17.50
2019-03-30T18:17:36.826Z,17.31
2019-03-30T18:20:13.272Z,17.31
2019-03-30T18:22:48.671Z,17.17
2019-03-30T18:25:24.276Z,17.02
2019-03-30T18:27:59.688Z,16.91
2019-03-30T18:30:42.530Z,16.78
2019-03-30T18:33:18.036Z,16.65
2019-03-30T18:35:53.693Z,16.42
2019-03-30T18:38:29.273Z,16.42
2019-03-30T18:41:04.688Z,16.31
2019-03-30T18:43:40.276Z,16.24
2019-03-30T18:46:15.642Z,16.11
2019-03-30T18:48:51.277Z,16.01
2019-03-30T18:51:27.441Z,15.90
2019-03-30T18:54:03.671Z,15.74
2019-03-30T18:56:39.277Z,15.71
2019-03-30T18:59:15.639Z,15.86
2019-03-30T19:01:51.251Z,15.94
2019-03-30T19:04:26.751Z,15.84
2019-03-30T19:07:00.599Z,15.77
2019-03-30T19:09:36.244Z,15.65
2019-03-30T19:12:11.707Z,15.54
2019-03-30T19:14:47.272Z,15.50
2019-03-30T19:17:22.681Z,15.49
2019-03-30T19:19:58.274Z,15.44
2019-03-30T19:22:33.675Z,15.34
2019-03-30T19:25:10.663Z,15.16
2019-03-30T19:27:46.280Z,15.16
2019-03-30T19:30:22.279Z,15.22
2019-03-30T19:32:57.658Z,15.22
2019-03-30T19:35:33.269Z,15.13
2019-03-30T19:38:10.951Z,15.04
2019-03-30T19:40:45.706Z,15.01
2019-03-30T19:43:21.278Z,15.10
2019-03-30T19:45:56.715Z,15.08
2019-03-30T19:48:32.273Z,15.04
2019-03-30T19:51:07.681Z,15.00
2019-03-30T19:53:44.271Z,14.98
2019-03-30T19:56:19.772Z,14.93
2019-03-30T19:59:09.615Z,14.94
2019-03-30T20:01:33.658Z,14.94
2019-03-30T20:04:09.327Z,14.89
2019-03-30T20:06:44.872Z,14.84
2019-03-30T20:09:20.992Z,14.83
2019-03-30T20:11:56.738Z,14.73
2019-03-30T20:14:30.571Z,14.62
2019-03-30T20:17:05.792Z,14.58
2019-03-30T20:19:39.600Z,14.54
2019-03-30T20:22:14.881Z,14.47
2019-03-30T20:24:48.602Z,14.40
2019-03-30T20:27:25.274Z,14.31
2019-03-30T20:30:00.690Z,14.26
2019-03-30T20:32:36.276Z,14.23
2019-03-30T20:35:12.602Z,14.16
2019-03-30T20:37:48.285Z,14.17
2019-03-30T20:40:23.690Z,14.13
2019-03-30T20:42:59.305Z,14.13
2019-03-30T20:45:34.666Z,14.13
2019-03-30T20:48:10.278Z,14.10
2019-03-30T20:50:45.934Z,14.02
2019-03-30T20:53:21.326Z,13.99
2019-03-30T20:55:56.872Z,13.93
2019-03-30T20:58:30.603Z,13.90
2019-03-30T21:01:06.312Z,13.83
2019-03-30T21:03:42.122Z,13.74
2019-03-30T21:06:17.695Z,13.61
2019-03-30T21:08:53.293Z,13.61
2019-03-30T21:11:29.290Z,13.55
2019-03-30T21:14:06.423Z,13.47
2019-03-30T21:16:42.643Z,13.39
2019-03-30T21:19:18.981Z,13.33
2019-03-30T21:24:23.423Z,13.38
2019-03-30T21:26:59.824Z,13.31
2019-03-30T21:29:36.496Z,13.28
2019-03-30T21:32:12.817Z,13.24
2019-03-30T21:34:49.324Z,13.30
2019-03-30T21:37:25.748Z,13.34
2019-03-30T21:40:02.308Z,13.43
2019-03-30T21:42:38.422Z,13.67
2019-03-30T21:45:15.299Z,13.74
2019-03-30T21:47:51.743Z,13.84
2019-03-30T21:50:28.296Z,13.84
2019-03-30T21:53:04.320Z,13.77
2019-03-30T21:55:39.777Z,13.60
2019-03-30T21:58:14.037Z,13.46
2019-03-30T22:00:48.605Z,13.34
2019-03-30T22:03:23.879Z,13.24
2019-03-30T22:05:57.573Z,13.14
2019-03-30T22:08:32.984Z,13.10
2019-03-30T22:11:08.282Z,13.04
2019-03-30T22:13:43.725Z,12.89
2019-03-30T22:16:19.294Z,12.89
2019-03-30T22:18:54.658Z,12.83
2019-03-30T22:21:30.551Z,12.77
2019-03-30T22:24:06.286Z,12.77
2019-03-30T22:26:41.762Z,12.77
2019-03-30T22:29:17.168Z,12.72
2019-03-30T22:31:52.676Z,12.71
2019-03-30T22:34:28.304Z,12.70
2019-03-30T22:37:03.885Z,12.68
2019-03-30T22:39:37.638Z,12.66
2019-03-30T22:42:12.919Z,12.56
2019-03-30T22:44:48.294Z,12.51
2019-03-30T22:47:23.954Z,12.57
2019-03-30T22:49:57.609Z,12.64
2019-03-30T22:52:32.898Z,12.76
2019-03-30T22:55:07.278Z,12.80
2019-03-30T22:57:42.688Z,12.86
2019-03-30T23:00:49.334Z,12.94
2019-03-30T23:03:24.671Z,13.03
2019-03-30T23:06:00.087Z,13.03
2019-03-30T23:08:35.601Z,13.19
2019-03-30T23:11:11.285Z,13.19
2019-03-30T23:13:46.707Z,13.18
2019-03-30T23:16:22.279Z,13.22
2019-03-30T23:18:57.743Z,13.16
2019-03-30T23:21:32.482Z,13.11
2019-03-30T23:24:07.953Z,13.03
2019-03-30T23:26:41.606Z,12.97
2019-03-30T23:29:16.878Z,12.97
2019-03-30T23:31:50.566Z,12.98
2019-03-30T23:34:25.903Z,12.93
2019-03-30T23:37:01.306Z,12.71
2019-03-30T23:39:36.691Z,12.81
2019-03-30T23:42:13.280Z,12.79
2019-03-30T23:44:48.710Z,12.69
2019-03-30T23:47:22.579Z,12.72
2019-03-30T23:49:57.890Z,12.72
2019-03-30T23:52:33.285Z,12.87
2019-03-30T23:55:08.797Z,12.56
2019-03-30T23:57:44.367Z,12.33
